Pereira, Colombia

2:30 AM COT on September 01, 2015 (GMT -0500)
Matecana | | Change Station
CLOSE
Current Station
Airport
Location: Pereira,
Elevation: 4403 ft
Nearby Weather Stations

Elev 4403 ft 4.82 °N, 75.73 °W | Updated 2 hours ago

Partly Cloudy
Partly Cloudy
70 °F
Feels Like 70 °F
N
9
Wind Variable Wind from East

Today
High -- | Low -- °F
--% Chance of Precip.
Yesterday
High -- | Low -- °F
Precip. -- in
5:56 AM 6:09 PM
Waning Gibbous, 91% visible
Pressure 30.09 in
Visibility 6.2 miles
Clouds Few 1700 ft
Dew Point 63 °F
Humidity 78%
Rainfall 0.00 in
Snow Depth Not available.
UV 0 out of 12
Pollen Not available.
Air Quality Not available.
Flu Activity Not available.
METAR SKPE 010500Z 10008KT 9999 FEW017 21/17 A3009
Pressure 30.09 in
Visibility 6.2 miles
Clouds Few 1700 ft
Dew Point 63 °F
Humidity 78%
Rainfall 0.00 in
Snow Depth Not available.
UV 0 out of 12
Pollen Not available.
Air Quality Not available.
Flu Activity Not available.
METAR SKPE 010500Z 10008KT 9999 FEW017 21/17 A3009

10-Day Weather Forecast

×

Almanac

Astronomy

Sep. 01, 2015 Rise Set
Actual Time
Civil Twilight
Nautical Twilight
Astronomical Twilight
Moon
Length of Visible Light
Length of Day
Tomorrow will be .
, % of the Moon is Illuminated

Today's Extremes

Country Highs Country Lows

Community

WunderPhotos

Upload Photos

1,851,488 photos uploaded!

WunderBlogs® & News

Nearby

Air Quality

  Air Quality AQ Index Pollutant
Not available.

Snow Depth

Station Depth Elevation

Earthquake Activity

City Distance Mag. Time & Date
Minimum magnitude displayed is 2.5.

Coastal Water Temperatures

Place Temperature

Stations

Nearby Weather Stations

Station Location Temp. Windchill Dew Point Humidity Wind Precip. Elev Updated Type